Time;durP1;ratioP1;P1;durP2;ratioP2;P2;SDS_P1;SDS_P2;PMS_P1;PMS_P2;Temp;Humidity;BMP_temperature;BMP_pressure;BME280_temperature;BME280_humidity;BME280_pressure;Samples;Min_cycle;Max_cycle;Signal;HPM_P1;HPM_P2
2022/02/05 00:02:57;;;;;;;11.45;4.35;;;;;;;4.92;81.46;100084.16;5035587;28;20099;-64
2022/02/05 00:06:00;;;;;;;8.30;4.60;;;;;;;4.91;81.80;100079.84;5021029;28;20095;-63
2022/02/05 00:09:09;;;;;;;12.82;5.38;;;;;;;4.89;81.98;100079.78;5036097;28;20124;-63
2022/02/05 00:39:55;;;;;;;8.82;3.75;;;;;;;4.86;82.12;100121.66;5035133;28;20527;-64
2022/02/05 00:42:46;;;;;;;7.85;4.47;;;;;;;4.86;81.84;100116.53;5021169;28;20079;-63
2022/02/05 00:45:38;;;;;;;7.32;4.53;;;;;;;4.87;81.68;100132.78;5020216;28;20557;-63
2022/02/05 00:48:28;;;;;;;9.07;5.30;;;;;;;4.88;81.58;100132.88;5035390;28;20080;-64
2022/02/05 00:51:24;;;;;;;7.53;3.47;;;;;;;4.88;81.61;100131.97;5020271;28;20076;-63
2022/02/05 00:54:23;;;;;;;9.23;4.43;;;;;;;4.88;81.12;100139.69;5020143;28;20107;-63
2022/02/05 00:57:31;;;;;;;8.40;4.32;;;;;;;4.89;81.51;100141.44;5019977;28;20049;-63
2022/02/05 01:00:26;;;;;;;13.18;5.07;;;;;;;4.87;81.72;100138.81;5020061;28;20527;-63
2022/02/05 01:03:22;;;;;;;6.82;4.00;;;;;;;4.87;81.39;100143.06;5034560;28;20059;-64
2022/02/05 01:06:08;;;;;;;12.63;4.38;;;;;;;4.88;81.64;100131.97;5034918;28;20048;-64
2022/02/05 01:08:58;;;;;;;10.82;4.32;;;;;;;4.86;81.60;100133.59;5019976;28;20056;-64
2022/02/05 01:11:44;;;;;;;13.15;5.32;;;;;;;4.86;82.30;100146.44;5019741;28;20076;-64
2022/02/05 01:14:46;;;;;;;10.10;4.38;;;;;;;4.85;81.66;100155.84;5034733;28;20048;-64
2022/02/05 01:17:42;;;;;;;10.00;5.03;;;;;;;4.84;81.79;100159.22;5019612;28;20146;-64
2022/02/05 01:23:35;;;;;;;13.05;4.53;;;;;;;4.86;81.66;100172.13;5034407;28;20088;-63
2022/02/05 01:26:37;;;;;;;11.52;4.80;;;;;;;4.83;82.00;100178.03;5034654;28;20408;-64
2022/02/05 01:29:42;;;;;;;10.02;5.75;;;;;;;4.84;81.76;100176.31;5034682;28;20091;-64
2022/02/05 01:32:32;;;;;;;8.52;4.20;;;;;;;4.82;81.67;100178.84;5019371;28;20049;-63
2022/02/05 01:35:40;;;;;;;9.43;4.80;;;;;;;4.82;81.21;100181.41;5019600;28;20083;-63
2022/02/05 01:57:25;;;;;;;9.95;4.75;;;;;;;4.81;81.51;100209.59;5019683;28;20110;-64
2022/02/05 02:12:39;;;;;;;9.05;5.15;;;;;;;4.77;81.93;100212.84;5033605;28;20133;-64
2022/02/05 02:15:30;;;;;;;12.95;4.82;;;;;;;4.79;81.81;100216.34;5033759;28;20100;-64
2022/02/05 02:21:22;;;;;;;11.38;4.68;;;;;;;4.74;81.53;100229.00;5033556;28;20086;-64
2022/02/05 02:24:19;;;;;;;9.45;5.05;;;;;;;4.75;81.86;100230.75;5018669;28;20056;-64
2022/02/05 02:30:22;;;;;;;9.25;5.05;;;;;;;4.77;81.27;100239.38;5033394;28;20067;-64
2022/02/05 02:33:20;;;;;;;10.13;5.45;;;;;;;4.74;81.74;100226.44;5033436;28;20068;-63
2022/02/05 02:36:23;;;;;;;9.10;4.35;;;;;;;4.75;81.51;100229.88;5018779;28;20059;-64
2022/02/05 02:39:21;;;;;;;13.73;6.20;;;;;;;4.73;81.25;100232.38;5018692;28;20118;-63
2022/02/05 02:42:15;;;;;;;10.60;5.10;;;;;;;4.73;81.85;100238.38;5033331;28;20087;-64
2022/02/05 02:45:07;;;;;;;17.50;5.55;;;;;;;4.68;81.59;100239.88;5018298;28;20096;-64
2022/02/05 02:47:52;;;;;;;15.43;5.93;;;;;;;4.71;81.95;100241.72;5033303;28;20495;-64
2022/02/05 02:59:50;;;;;;;11.57;5.78;;;;;;;4.70;81.58;100257.94;5033409;28;20516;-64
2022/02/05 03:02:40;;;;;;;12.98;6.72;;;;;;;4.70;81.84;100265.63;5002538;28;20141;-65
2022/02/05 03:05:35;;;;;;;7.72;5.13;;;;;;;4.67;81.77;100268.06;4992882;28;20049;-64
2022/02/05 03:08:28;;;;;;;10.68;5.82;;;;;;;4.67;81.14;100262.94;4993063;28;20108;-64
2022/02/05 03:11:23;;;;;;;9.98;5.22;;;;;;;4.67;81.45;100268.06;4993671;28;20097;-64
2022/02/05 03:14:08;;;;;;;8.15;4.65;;;;;;;4.67;81.28;100273.19;4995494;28;20169;-64
2022/02/05 03:17:04;;;;;;;11.10;6.25;;;;;;;4.65;81.21;100275.72;4996918;28;20517;-64
2022/02/05 03:19:57;;;;;;;12.90;4.95;;;;;;;4.66;81.87;100271.44;4997285;28;20050;-64
2022/02/05 03:22:47;;;;;;;8.93;4.95;;;;;;;4.65;81.60;100273.13;4997792;28;20096;-64
2022/02/05 03:25:39;;;;;;;7.70;4.55;;;;;;;4.64;81.34;100276.53;4996672;28;20053;-63
2022/02/05 03:28:29;;;;;;;9.30;5.10;;;;;;;4.65;81.30;100287.66;4996045;28;20057;-64
2022/02/05 03:31:13;;;;;;;10.65;5.18;;;;;;;4.66;81.54;100292.88;4997497;28;20069;-64
2022/02/05 03:34:06;;;;;;;10.02;5.78;;;;;;;4.63;81.49;100289.25;4997190;28;20113;-63
2022/02/05 03:36:55;;;;;;;8.63;4.25;;;;;;;4.61;81.61;100290.88;4997076;28;20054;-63
2022/02/05 03:39:41;;;;;;;12.60;5.45;;;;;;;4.60;81.58;100290.03;4997054;28;20120;-63
2022/02/05 03:42:36;;;;;;;13.63;4.95;;;;;;;4.61;81.86;100299.47;4997826;28;20064;-64
2022/02/05 03:45:32;;;;;;;10.98;4.75;;;;;;;4.59;81.30;100298.53;4996219;28;20061;-65
2022/02/05 03:48:24;;;;;;;15.02;5.47;;;;;;;4.59;81.41;100295.97;4996945;28;20089;-64
2022/02/05 03:51:14;;;;;;;13.68;5.45;;;;;;;4.56;81.73;100300.97;4995891;28;20065;-64
2022/02/05 03:54:09;;;;;;;10.27;4.93;;;;;;;4.57;81.52;100306.19;4996108;28;20100;-63
2022/02/05 03:57:02;;;;;;;8.25;4.53;;;;;;;4.55;81.49;100314.59;4996019;28;20088;-63
2022/02/05 03:59:50;;;;;;;11.35;5.25;;;;;;;4.55;81.17;100304.34;4996964;28;20099;-64
2022/02/05 04:02:39;;;;;;;14.38;5.40;;;;;;;4.55;81.18;100309.47;4995455;28;20181;-64
2022/02/05 04:05:31;;;;;;;13.27;5.13;;;;;;;4.56;81.50;100318.94;4995404;28;20425;-64
2022/02/05 04:08:21;;;;;;;7.60;5.32;;;;;;;4.55;81.58;100318.06;4996006;28;20129;-64
2022/02/05 04:11:16;;;;;;;9.63;5.03;;;;;;;4.56;81.03;100314.69;4995563;28;20050;-63
2022/02/05 04:17:15;;;;;;;9.73;4.97;;;;;;;4.54;81.69;100318.88;4996543;28;20045;-64
2022/02/05 04:19:59;;;;;;;7.43;4.93;;;;;;;4.55;81.39;100310.38;4996305;28;20061;-64
2022/02/05 04:22:51;;;;;;;13.13;5.22;;;;;;;4.56;81.06;100312.13;4996271;28;20097;-65
2022/02/05 04:25:46;;;;;;;13.00;4.50;;;;;;;4.56;81.32;100319.81;4995423;28;20061;-63
2022/02/05 04:28:38;;;;;;;9.75;4.50;;;;;;;4.57;80.85;100311.31;4996754;28;20049;-63
2022/02/05 04:31:30;;;;;;;11.43;4.60;;;;;;;4.56;81.51;100318.94;4995511;28;20125;-64
2022/02/05 04:34:20;;;;;;;11.60;6.15;;;;;;;4.56;81.42;100321.50;4996424;28;20057;-64
2022/02/05 04:37:07;;;;;;;8.95;5.15;;;;;;;4.53;80.88;100319.69;4994957;28;20061;-63
2022/02/05 04:43:37;;;;;;;8.48;4.53;;;;;;;4.48;81.30;100321.16;4995973;28;20057;-63
2022/02/05 05:15:11;;;;;;;6.53;3.83;;;;;;;4.37;81.33;100333.50;5034779;28;20119;-63
2022/02/05 05:19:48;;;;;;;13.52;5.00;;;;;;;4.32;81.47;100328.97;5034744;28;20520;-64
2022/02/05 05:22:40;;;;;;;13.05;5.07;;;;;;;4.33;81.50;100334.19;5019725;28;20090;-64
2022/02/05 05:25:25;;;;;;;18.60;6.15;;;;;;;4.35;81.24;100336.81;5019801;28;20515;-64
2022/02/05 05:28:15;;;;;;;9.68;4.80;;;;;;;4.36;81.41;100342.00;5034691;28;20107;-64
2022/02/05 05:31:01;;;;;;;12.20;5.60;;;;;;;4.37;81.06;100340.31;5034017;28;20052;-64
2022/02/05 05:33:48;;;;;;;11.18;5.43;;;;;;;4.35;81.06;100358.22;5019699;28;20140;-63
2022/02/05 05:36:34;;;;;;;14.32;5.22;;;;;;;4.37;81.46;100353.16;5033557;28;20049;-63
2022/02/05 05:39:24;;;;;;;14.80;5.63;;;;;;;4.36;81.36;100352.25;5019507;28;20048;-64
2022/02/05 05:42:20;;;;;;;11.18;4.88;;;;;;;4.37;80.98;100353.16;5019134;28;20048;-63
2022/02/05 05:45:51;;;;;;;11.00;4.95;;;;;;;4.37;81.08;100351.44;5033367;28;20095;-64
2022/02/05 05:48:43;;;;;;;7.32;4.95;;;;;;;4.37;81.84;100348.88;5033984;28;20515;-63
2022/02/05 05:51:35;;;;;;;11.95;5.38;;;;;;;4.37;81.23;100360.84;5033015;28;20095;-64
2022/02/05 05:54:25;;;;;;;10.00;5.53;;;;;;;4.35;81.33;100360.78;5019008;28;20528;-64
2022/02/05 05:57:15;;;;;;;11.43;5.82;;;;;;;4.34;80.92;100361.59;5019146;28;20053;-64
2022/02/05 06:00:03;;;;;;;18.85;5.68;;;;;;;4.36;81.17;100367.66;5033908;28;20091;-64
2022/02/05 06:02:48;;;;;;;11.85;5.20;;;;;;;4.35;80.68;100365.94;5018710;28;20075;-63
2022/02/05 06:05:35;;;;;;;12.35;4.03;;;;;;;4.38;81.17;100373.75;5018991;28;20472;-63
2022/02/05 06:08:24;;;;;;;12.98;5.70;;;;;;;4.37;80.94;100374.56;5034026;28;20515;-64
2022/02/05 06:11:09;;;;;;;16.15;5.82;;;;;;;4.38;81.41;100380.59;5018008;28;20051;-64
2022/02/05 06:13:55;;;;;;;11.88;5.30;;;;;;;4.38;80.99;100385.72;5033914;28;20056;-64
2022/02/05 06:16:44;;;;;;;12.50;6.05;;;;;;;4.38;81.75;100394.28;5033923;28;20133;-63
2022/02/05 06:19:36;;;;;;;12.70;4.90;;;;;;;4.37;81.32;100389.94;5018797;28;20568;-63
2022/02/05 06:22:20;;;;;;;7.47;4.55;;;;;;;4.37;81.16;100394.22;5018907;28;20440;-64
2022/02/05 06:25:14;;;;;;;17.48;6.10;;;;;;;4.38;81.60;100413.94;5033810;28;20056;-64
2022/02/05 06:28:21;;;;;;;13.55;5.53;;;;;;;4.37;81.26;100407.06;5018151;28;20626;-64
2022/02/05 06:31:11;;;;;;;12.35;5.03;;;;;;;4.37;81.41;100407.91;5018570;28;20076;-63
2022/02/05 06:33:57;;;;;;;13.13;4.13;;;;;;;4.35;81.81;100411.22;5018703;28;20088;-63
2022/02/05 06:36:47;;;;;;;11.57;5.47;;;;;;;4.35;81.60;100412.13;5033799;28;20053;-64
2022/02/05 06:39:33;;;;;;;13.18;5.13;;;;;;;4.35;81.19;100411.22;5018865;28;20088;-63
2022/02/05 06:42:23;;;;;;;13.50;5.95;;;;;;;4.33;81.12;100413.75;5018700;28;20400;-64
2022/02/05 06:45:13;;;;;;;11.27;4.78;;;;;;;4.33;81.18;100410.28;5018513;28;20134;-64
2022/02/05 06:48:03;;;;;;;9.40;5.18;;;;;;;4.32;81.62;100421.34;5021067;28;20569;-64
2022/02/05 06:50:49;;;;;;;10.60;6.20;;;;;;;4.31;80.98;100419.59;5037334;28;20107;-64
2022/02/05 06:53:39;;;;;;;11.38;5.18;;;;;;;4.30;81.44;100417.81;5022473;28;20127;-64
2022/02/05 06:56:28;;;;;;;9.95;4.63;;;;;;;4.28;81.31;100416.91;5022555;28;20080;-64
2022/02/05 06:59:21;;;;;;;15.85;6.95;;;;;;;4.28;81.09;100417.75;5022335;28;20133;-64
2022/02/05 07:02:13;;;;;;;11.88;5.38;;;;;;;4.29;81.04;100423.75;5021895;28;20072;-64
2022/02/05 07:05:03;;;;;;;10.88;4.95;;;;;;;4.29;80.88;100416.06;5037379;28;20499;-64
2022/02/05 07:07:55;;;;;;;13.07;5.90;;;;;;;4.29;81.46;100427.22;5022132;28;20049;-64
2022/02/05 07:10:47;;;;;;;12.38;5.60;;;;;;;4.28;81.42;100428.03;5022124;28;20053;-63
2022/02/05 07:13:39;;;;;;;11.85;5.32;;;;;;;4.27;81.45;100426.25;5022192;28;20103;-64
2022/02/05 07:16:37;;;;;;;12.40;5.22;;;;;;;4.26;81.04;100430.53;5022034;28;20059;-63
2022/02/05 07:22:47;;;;;;;12.75;5.80;;;;;;;4.24;81.42;100437.28;5036911;28;20056;-64
2022/02/05 07:31:56;;;;;;;11.75;5.20;;;;;;;4.21;80.90;100442.25;5036627;28;20396;-65
2022/02/05 07:34:41;;;;;;;10.70;4.55;;;;;;;4.21;80.89;100441.34;5022033;28;20154;-64
2022/02/05 07:37:27;;;;;;;15.18;5.80;;;;;;;4.22;80.81;100443.13;5036860;28;20075;-63
2022/02/05 07:40:14;;;;;;;15.45;5.20;;;;;;;4.20;81.54;100455.88;5021832;28;20400;-64
2022/02/05 07:43:10;;;;;;;11.38;4.90;;;;;;;4.20;81.56;100450.75;5036543;28;20054;-64
2022/02/05 07:45:59;;;;;;;18.90;5.40;;;;;;;4.20;80.98;100453.31;5021676;28;20421;-64
2022/02/05 07:48:49;;;;;;;14.65;5.70;;;;;;;4.18;81.18;100452.34;5021640;28;20128;-64
2022/02/05 07:51:39;;;;;;;15.23;5.88;;;;;;;4.17;81.34;100444.59;5035236;28;20087;-64
2022/02/05 07:54:26;;;;;;;13.30;5.60;;;;;;;4.16;81.47;100450.53;5021375;28;20099;-64
2022/02/05 07:57:16;;;;;;;14.50;5.22;;;;;;;4.15;80.88;100454.78;5036129;28;20116;-64
2022/02/05 08:00:00;;;;;;;17.48;5.43;;;;;;;4.13;80.92;100448.69;5034522;28;20189;-64
2022/02/05 08:02:57;;;;;;;11.15;5.22;;;;;;;4.12;80.91;100457.22;5035951;28;20119;-64
2022/02/05 08:05:44;;;;;;;14.88;6.13;;;;;;;4.11;80.83;100451.19;5021272;28;20587;-64
2022/02/05 08:08:35;;;;;;;13.68;5.68;;;;;;;4.12;81.17;100467.47;5036161;28;20095;-63
2022/02/05 08:11:22;;;;;;;9.77;5.00;;;;;;;4.09;81.50;100460.50;5036044;28;20043;-63
2022/02/05 08:14:12;;;;;;;10.02;5.07;;;;;;;4.09;81.34;100464.75;5036109;28;20052;-63
2022/02/05 08:17:16;;;;;;;12.23;5.68;;;;;;;4.09;80.81;100462.19;5035715;28;20424;-64
2022/02/05 08:20:00;;;;;;;14.20;5.32;;;;;;;4.09;81.47;100464.75;5034997;28;20099;-64
2022/02/05 08:22:50;;;;;;;14.77;6.53;;;;;;;4.08;81.20;100475.81;5020893;28;20103;-63
2022/02/05 08:25:37;;;;;;;13.88;5.70;;;;;;;4.05;81.13;100465.41;5020838;28;20052;-64
2022/02/05 08:28:28;;;;;;;11.73;5.50;;;;;;;4.06;81.27;100477.41;5035881;28;20510;-63
2022/02/05 08:30:56;;;;;;;10.88;6.40;;;;;;;4.05;81.59;100483.34;5001409;28;20041;-63
2022/02/05 08:33:27;;;;;;;13.25;6.18;;;;;;;4.06;81.52;100487.69;5001713;28;20037;-63
2022/02/05 08:35:56;;;;;;;12.27;5.20;;;;;;;4.06;80.93;100496.25;5001744;28;20045;-63
2022/02/05 08:38:23;;;;;;;15.45;6.00;;;;;;;4.04;80.62;100496.97;5035534;28;20025;-64
2022/02/05 08:40:52;;;;;;;13.82;6.18;;;;;;;4.04;80.61;100502.13;5001513;28;20520;-64
2022/02/05 08:43:23;;;;;;;12.18;5.78;;;;;;;4.03;80.89;100500.34;5034987;28;20033;-64
2022/02/05 08:45:54;;;;;;;13.82;6.10;;;;;;;4.03;80.98;100501.25;5002008;28;20045;-64
2022/02/05 08:48:22;;;;;;;17.60;5.80;;;;;;;4.03;81.15;100513.19;5001736;28;20044;-64
2022/02/05 08:50:53;;;;;;;14.52;6.38;;;;;;;4.01;81.02;100507.97;5017503;28;20049;-64
2022/02/05 08:53:22;;;;;;;22.40;6.82;;;;;;;4.03;80.81;100508.94;5035080;28;20096;-64
2022/02/05 08:55:56;;;;;;;17.60;6.18;;;;;;;4.01;81.36;100510.53;5000883;28;20047;-63
2022/02/05 08:58:30;;;;;;;17.75;5.82;;;;;;;4.02;81.20;100508.84;5017471;28;20091;-64
2022/02/05 09:01:13;;;;;;;21.65;5.85;;;;;;;4.01;81.18;100505.41;5000862;28;20048;-64
2022/02/05 09:04:19;;;;;;;40.78;6.85;;;;;;;4.02;81.21;100502.06;5034904;28;20121;-64
2022/02/05 09:06:38;;;;;;;12.50;5.50;;;;;;;4.00;80.66;100495.97;5034084;28;20071;-63
2022/02/05 09:09:09;;;;;;;10.63;5.28;;;;;;;4.02;81.10;100491.78;5034606;28;20108;-63
2022/02/05 09:12:44;;;;;;;17.67;5.90;;;;;;;4.03;81.02;100493.56;5000129;28;20033;-64
2022/02/05 09:16:52;;;;;;;19.80;6.30;;;;;;;4.02;80.87;100480.63;5034671;28;20077;-64
2022/02/05 09:19:21;;;;;;;14.60;5.63;;;;;;;4.01;81.35;100479.75;5034880;28;20068;-63
2022/02/05 09:21:52;;;;;;;18.85;5.25;;;;;;;4.04;81.57;100489.28;5034601;28;20033;-63
2022/02/05 09:24:18;;;;;;;12.93;5.82;;;;;;;4.03;80.92;100475.59;5000740;28;20030;-63
2022/02/05 09:26:54;;;;;;;17.15;5.25;;;;;;;4.07;81.25;100489.44;5034354;28;20504;-64
2022/02/05 09:29:26;;;;;;;15.95;6.32;;;;;;;4.07;81.21;100495.44;5016697;28;20042;-64
2022/02/05 09:31:56;;;;;;;13.02;5.22;;;;;;;4.09;81.31;100487.84;5000751;28;20033;-64
2022/02/05 09:34:25;;;;;;;19.33;5.80;;;;;;;4.10;81.32;100481.91;4999942;28;20042;-64
2022/02/05 09:36:50;;;;;;;14.80;5.85;;;;;;;4.10;81.48;100481.91;5016590;28;20405;-64
2022/02/05 09:39:19;;;;;;;17.02;6.68;;;;;;;4.10;81.38;100480.22;5016671;28;20048;-64
2022/02/05 09:41:48;;;;;;;14.30;6.13;;;;;;;4.14;81.55;100476.09;5000273;28;20087;-63
2022/02/05 09:44:14;;;;;;;13.02;5.05;;;;;;;4.15;80.98;100475.28;5000114;28;20107;-64
2022/02/05 09:46:40;;;;;;;19.73;6.20;;;;;;;4.17;81.34;100495.91;5016465;28;20060;-64
2022/02/05 09:49:11;;;;;;;15.13;6.05;;;;;;;4.19;80.93;100495.19;5033983;28;20069;-64
2022/02/05 09:51:50;;;;;;;15.45;5.60;;;;;;;4.20;81.04;100496.94;5016354;28;20100;-63
2022/02/05 09:54:19;;;;;;;10.10;5.03;;;;;;;4.21;80.67;100508.97;5033992;28;20042;-63
2022/02/05 09:56:47;;;;;;;17.25;6.07;;;;;;;4.23;81.17;100511.59;5034241;28;20033;-64
2022/02/05 09:59:15;;;;;;;13.18;6.18;;;;;;;4.25;80.89;100515.13;5034161;28;20048;-63
2022/02/05 10:01:40;;;;;;;16.27;5.90;;;;;;;4.26;81.04;100517.78;5032600;28;20076;-63
2022/02/05 10:04:12;;;;;;;13.27;6.28;;;;;;;4.28;81.10;100519.53;5034144;28;20061;-63
2022/02/05 10:06:47;;;;;;;10.90;5.25;;;;;;;4.30;80.91;100531.63;5033694;28;20037;-63
2022/02/05 10:09:19;;;;;;;10.68;5.15;;;;;;;4.34;81.16;100530.97;5034058;28;20128;-63
2022/02/05 10:11:56;;;;;;;15.73;5.30;;;;;;;4.37;81.10;100532.81;5034122;28;20076;-64
2022/02/05 10:14:25;;;;;;;15.77;5.38;;;;;;;4.38;81.09;100535.44;5000146;28;20079;-64
2022/02/05 10:17:02;;;;;;;10.80;5.38;;;;;;;4.42;81.39;100541.63;5032864;28;20029;-63
2022/02/05 10:19:52;;;;;;;23.60;6.25;;;;;;;4.44;80.93;100544.25;5032527;28;20065;-63
2022/02/05 10:22:23;;;;;;;13.10;5.82;;;;;;;4.46;81.06;100563.19;4999060;28;20037;-64
2022/02/05 10:24:55;;;;;;;10.45;4.75;;;;;;;4.45;80.91;100546.00;5015992;28;20034;-64
2022/02/05 10:27:28;;;;;;;16.80;6.53;;;;;;;4.47;81.52;100550.41;5033651;28;20046;-64
2022/02/05 10:30:05;;;;;;;11.23;6.13;;;;;;;4.47;80.88;100537.56;5033478;28;20033;-64
2022/02/05 10:32:40;;;;;;;15.57;6.93;;;;;;;4.48;80.94;100534.19;5033372;28;20045;-63
2022/02/05 10:35:23;;;;;;;13.05;5.95;;;;;;;4.50;81.29;100534.28;5016205;28;20124;-63
2022/02/05 10:38:14;;;;;;;14.50;5.50;;;;;;;4.51;81.23;100533.50;5032139;28;20040;-64
2022/02/05 10:41:00;;;;;;;10.15;5.38;;;;;;;4.52;81.06;100530.09;5033661;28;20138;-64
2022/02/05 10:43:34;;;;;;;13.00;5.28;;;;;;;4.53;80.72;100525.03;5033830;28;20048;-64
2022/02/05 10:46:04;;;;;;;11.70;4.95;;;;;;;4.56;80.51;100527.78;4999211;28;20044;-64
2022/02/05 10:48:31;;;;;;;10.50;5.45;;;;;;;4.60;81.06;100531.34;5033457;28;20041;-64
2022/02/05 10:51:00;;;;;;;11.13;5.95;;;;;;;4.64;80.32;100542.66;5015571;28;20043;-64
2022/02/05 10:53:41;;;;;;;16.17;6.53;;;;;;;4.65;80.84;100526.44;5033534;28;20048;-64
2022/02/05 10:56:19;;;;;;;13.65;6.00;;;;;;;4.67;81.10;100533.38;4999481;28;20044;-64
2022/02/05 11:07:20;;;;;;;18.23;6.68;;;;;;;4.74;80.83;100526.88;5033222;28;20038;-63
2022/02/05 11:09:49;;;;;;;13.77;5.35;;;;;;;4.76;80.58;100521.81;4998998;28;20099;-65
2022/02/05 11:20:18;;;;;;;8.38;5.03;;;;;;;4.80;80.12;100521.16;5033329;28;20034;-64
2022/02/05 11:22:49;;;;;;;11.97;6.07;;;;;;;4.82;80.41;100501.56;4999768;28;20076;-63
2022/02/05 11:25:18;;;;;;;13.00;5.10;;;;;;;4.83;81.05;100504.19;4998861;28;20140;-63
2022/02/05 11:27:51;;;;;;;14.88;5.15;;;;;;;4.85;80.94;100510.28;5015382;28;20037;-63
2022/02/05 11:30:34;;;;;;;13.73;5.47;;;;;;;4.86;81.08;100508.59;5032973;28;20516;-64
2022/02/05 11:33:18;;;;;;;10.43;4.63;;;;;;;4.87;80.43;100516.38;4999492;28;20038;-64
2022/02/05 11:36:09;;;;;;;13.88;5.95;;;;;;;4.88;80.31;100515.56;5035222;28;20056;-65
2022/02/05 11:38:37;;;;;;;11.27;4.75;;;;;;;4.90;80.42;100507.94;5018718;28;20493;-64
2022/02/05 11:41:06;;;;;;;27.15;5.78;;;;;;;4.91;81.00;100506.22;5018751;28;20061;-64
2022/02/05 11:43:37;;;;;;;13.65;5.88;;;;;;;4.91;80.71;100508.78;5036218;28;20453;-64
2022/02/05 11:46:11;;;;;;;12.07;5.53;;;;;;;4.90;80.92;100499.34;5019030;28;20072;-64
2022/02/05 11:48:43;;;;;;;22.98;4.95;;;;;;;4.90;80.73;100501.91;5036904;28;20044;-64
2022/02/05 11:51:20;;;;;;;12.18;5.70;;;;;;;4.91;80.04;100504.56;5036230;28;20091;-65
2022/02/05 11:53:55;;;;;;;7.38;4.47;;;;;;;4.93;80.59;100502.94;5002516;28;20045;-64
2022/02/05 11:56:22;;;;;;;10.52;4.97;;;;;;;4.94;80.21;100503.81;5018800;28;20042;-64
2022/02/05 11:58:59;;;;;;;10.18;4.43;;;;;;;4.94;80.54;100503.81;5036185;28;20107;-64
2022/02/05 12:01:39;;;;;;;9.65;4.63;;;;;;;4.95;80.17;100505.56;5036002;28;20087;-63
2022/02/05 12:04:11;;;;;;;6.97;4.28;;;;;;;4.96;80.47;100504.75;5001940;28;20065;-63
2022/02/05 12:06:47;;;;;;;12.50;5.43;;;;;;;4.95;80.82;100506.47;5018719;28;20400;-64
2022/02/05 12:09:49;;;;;;;9.15;4.63;;;;;;;4.96;80.34;100507.31;5002321;28;20108;-65
2022/02/05 12:12:34;;;;;;;10.23;4.97;;;;;;;4.95;80.28;100496.19;4997297;28;20060;-64
2022/02/05 12:15:08;;;;;;;12.95;5.30;;;;;;;4.96;80.45;100500.50;5002599;28;20061;-63
2022/02/05 12:26:17;;;;;;;6.25;3.67;;;;;;;4.99;80.24;100497.19;5024697;28;20385;-63
2022/02/05 12:28:44;;;;;;;7.45;4.80;;;;;;;4.98;80.33;100496.28;5001601;28;20396;-63
2022/02/05 12:31:20;;;;;;;9.88;4.28;;;;;;;4.99;80.49;100482.66;5001451;28;20120;-63
2022/02/05 12:33:51;;;;;;;11.05;4.30;;;;;;;5.02;80.05;100492.19;5035827;28;20048;-64
2022/02/05 12:36:39;;;;;;;11.43;4.60;;;;;;;5.03;79.93;100483.69;5017940;28;20128;-63
2022/02/05 12:39:12;;;;;;;6.90;3.85;;;;;;;5.05;80.36;100478.59;5001555;28;20042;-64
2022/02/05 12:41:45;;;;;;;6.25;3.53;;;;;;;5.02;79.98;100462.25;5001441;28;20052;-64
2022/02/05 12:44:11;;;;;;;9.15;4.05;;;;;;;5.03;80.18;100460.56;5001816;28;20099;-64
2022/02/05 12:46:43;;;;;;;11.80;4.63;;;;;;;5.02;80.36;100459.66;5035284;28;20126;-64
2022/02/05 12:49:57;;;;;;;7.57;3.40;;;;;;;5.03;79.96;100458.88;5035349;28;20038;-64
2022/02/05 12:51:58;;;;;;;7.05;3.75;;;;;;;5.05;79.84;100463.19;5020889;28;20382;-64
2022/02/05 12:54:25;;;;;;;9.20;4.50;;;;;;;5.05;80.25;100484.66;5001010;28;20033;-64
2022/02/05 12:56:51;;;;;;;13.85;3.88;;;;;;;5.05;79.98;100458.94;5017224;28;20068;-64
2022/02/05 12:59:26;;;;;;;7.65;3.38;;;;;;;5.05;80.40;100446.09;5001087;28;20025;-64
2022/02/05 13:02:02;;;;;;;9.52;3.95;;;;;;;5.07;80.04;100448.72;5010174;28;20053;-63
2022/02/05 13:04:35;;;;;;;15.73;4.15;;;;;;;5.06;79.54;100459.81;4978261;28;20125;-64
2022/02/05 13:07:02;;;;;;;8.35;4.22;;;;;;;5.07;79.88;100454.72;4994371;28;20070;-64
2022/02/05 13:09:28;;;;;;;13.65;4.38;;;;;;;5.07;79.36;100449.59;4978287;28;20564;-64
2022/02/05 13:12:06;;;;;;;9.55;4.15;;;;;;;5.06;80.56;100455.53;4994140;28;20177;-64
2022/02/05 13:14:39;;;;;;;5.55;3.40;;;;;;;5.07;80.40;100447.03;4995567;28;20030;-63
2022/02/05 13:17:25;;;;;;;9.52;3.42;;;;;;;5.07;79.94;100434.19;4995266;28;20045;-64
2022/02/05 13:41:51;;;;;;;5.90;3.42;;;;;;;5.06;79.64;100419.56;4994932;28;20030;-64
2022/02/05 13:44:25;;;;;;;6.22;3.55;;;;;;;5.05;80.48;100417.84;4993797;28;20046;-64
2022/02/05 13:47:10;;;;;;;9.95;4.22;;;;;;;5.06;79.38;100421.28;4994374;28;20063;-64
2022/02/05 13:49:37;;;;;;;11.50;4.38;;;;;;;5.06;80.37;100428.97;4977537;28;20453;-63
2022/02/05 13:52:17;;;;;;;13.25;3.53;;;;;;;5.07;79.78;100425.59;4977382;28;20085;-63
2022/02/05 13:54:46;;;;;;;9.23;4.20;;;;;;;5.06;80.14;100418.72;4994810;28;20051;-64
2022/02/05 13:57:14;;;;;;;10.80;3.90;;;;;;;5.06;79.41;100419.56;4994055;28;20385;-63
2022/02/05 13:59:42;;;;;;;6.25;3.25;;;;;;;5.06;79.80;100416.13;4993470;28;20073;-63
2022/02/05 14:02:17;;;;;;;5.57;2.80;;;;;;;5.08;79.78;100419.66;5006732;28;20056;-64
2022/02/05 14:05:05;;;;;;;6.03;3.33;;;;;;;5.07;79.70;100416.19;4999854;28;20056;-64
2022/02/05 14:07:46;;;;;;;9.88;3.90;;;;;;;5.07;79.42;100423.03;4999459;28;20091;-64
2022/02/05 14:10:18;;;;;;;6.80;2.80;;;;;;;5.07;79.55;100415.31;4999934;28;20037;-63
2022/02/05 14:12:53;;;;;;;7.47;3.67;;;;;;;5.07;79.84;100418.75;5032617;28;20044;-63
2022/02/05 14:15:26;;;;;;;8.75;4.32;;;;;;;5.07;79.07;100410.19;4999623;28;20079;-64
2022/02/05 14:18:14;;;;;;;5.70;3.45;;;;;;;5.04;79.63;100410.94;4999636;28;20065;-64
2022/02/05 14:21:01;;;;;;;9.38;3.30;;;;;;;5.06;79.25;100406.72;5000169;28;20128;-64
2022/02/05 14:23:30;;;;;;;8.02;3.38;;;;;;;5.06;78.96;100417.00;4999912;28;20095;-64
2022/02/05 14:26:13;;;;;;;9.43;3.30;;;;;;;5.07;79.71;100415.31;4999509;28;20044;-64
2022/02/05 14:28:41;;;;;;;7.93;4.35;;;;;;;5.06;79.03;100414.44;5015976;28;20041;-63
2022/02/05 14:31:13;;;;;;;10.75;3.70;;;;;;;5.06;79.62;100413.56;5033780;28;20069;-64
2022/02/05 14:34:07;;;;;;;9.52;4.15;;;;;;;5.08;79.58;100417.94;4999679;28;20471;-64
2022/02/05 14:42:10;;;;;;;7.95;3.40;;;;;;;5.07;79.23;100417.91;4982772;28;20084;-64
2022/02/05 14:44:38;;;;;;;6.57;3.22;;;;;;;5.08;79.51;100410.25;5033430;28;20128;-64
2022/02/05 14:47:10;;;;;;;7.35;3.88;;;;;;;5.07;79.92;100413.63;5015447;28;20071;-64
2022/02/05 14:49:36;;;;;;;7.47;3.85;;;;;;;5.07;79.25;100418.75;4999252;28;20039;-64
2022/02/05 14:52:07;;;;;;;10.73;4.20;;;;;;;5.06;79.78;100419.56;5033219;28;20033;-65
2022/02/05 14:54:35;;;;;;;12.40;4.28;;;;;;;5.05;79.36;100422.97;5033262;28;20038;-64
2022/02/05 14:57:04;;;;;;;6.57;3.55;;;;;;;5.07;79.04;100426.47;5033399;28;20069;-65
2022/02/05 14:59:30;;;;;;;12.73;4.82;;;;;;;5.05;79.44;100425.56;4999161;28;20042;-65
2022/02/05 15:01:56;;;;;;;10.70;3.63;;;;;;;5.06;79.62;100423.84;4998923;28;20551;-64
2022/02/05 15:04:27;;;;;;;8.52;3.42;;;;;;;5.07;79.28;100420.47;5032949;28;20030;-64
2022/02/05 15:06:52;;;;;;;15.07;4.18;;;;;;;5.07;79.46;100417.91;5033032;28;20116;-64
2022/02/05 15:09:24;;;;;;;8.55;3.83;;;;;;;5.06;79.13;100408.44;5018825;28;20037;-64
2022/02/05 15:11:57;;;;;;;10.10;3.70;;;;;;;5.06;79.64;100411.88;5037013;28;20048;-64
2022/02/05 15:14:26;;;;;;;10.27;4.05;;;;;;;5.06;79.14;100404.16;5002889;28;20456;-64
2022/02/05 15:16:54;;;;;;;11.23;3.95;;;;;;;5.06;78.92;100408.44;5036720;28;20030;-64
2022/02/05 15:19:22;;;;;;;9.18;4.18;;;;;;;5.05;78.97;100411.81;5036779;28;20489;-64
2022/02/05 15:21:50;;;;;;;13.73;4.68;;;;;;;5.05;79.55;100409.25;5035881;28;20038;-64
2022/02/05 15:24:18;;;;;;;10.88;4.78;;;;;;;5.04;79.10;100403.25;5019305;28;20037;-64
2022/02/05 15:26:44;;;;;;;8.10;4.32;;;;;;;5.02;79.77;100399.72;5036342;28;20091;-63
2022/02/05 15:29:13;;;;;;;11.60;4.13;;;;;;;5.06;79.02;100403.28;5036530;28;20034;-64
2022/02/05 15:31:43;;;;;;;8.38;4.25;;;;;;;5.05;79.48;100398.97;5019059;28;20456;-63
2022/02/05 15:34:09;;;;;;;12.73;4.43;;;;;;;5.05;79.05;100399.84;5018965;28;20072;-64
2022/02/05 15:44:18;;;;;;;72.60;31.40;;;;;;;5.04;79.04;100382.69;5036892;28;20041;-64